Nearby METAR Reports

 

EGNM - Leeds And Bradford, United Kingdom
Distance from station: N 11mi, 18km
Updated: 15/08/2018 14:50
Mostly cloudy
Mostly cloudy
 Wind from WSW
Wind: WSW 15 mph , 24 km/h
Temperature: 21°C
Dew Point: 16°C
Humidity: 73%
Barometer: 1013 hPa
Clouds: Mostly cloudy
Visibility: 6 miles , 10 km
Cloud details: Mostly cloudy 671 m
2018/08/15 13:50 EGNM 151350Z 24013KT 190V270 9999 BKN022 21/16 Q1013
EGXG - Church Fenton, United Kingdom
Distance from station: ENE 19mi, 31km
Updated: 19/12/2013 08:50
NOT Current
Clear
Clear
 Wind from SW
Wind: SW 16 mph , 26 km/h
Temperature: 4°C
Wind Chill: -1°C
Dew Point: -1°C
Humidity: 70%
Barometer: 996 hPa
Clouds: Clear
Visibility: 6 miles , 10 km
2013/12/19 08:50 EGXG 190850Z AUTO 23014KT 9999 NCD 04/M01 Q0996
 
EGXU - Linton-On-Ouse, United Kingdom
Distance from station: NNE 28mi, 45km
Updated: 15/08/2018 14:50
Mostly cloudy
Mostly cloudy
 Wind from SW
Wind: SW 20 mph , 31 km/h
Temperature: 23°C
Dew Point: 16°C
Humidity: 65%
Barometer: 1011 hPa
Clouds: Mostly cloudy
Visibility: 6 miles , 10 km
Cloud details: Mostly cloudy 914 m
2018/08/15 13:50 EGXU 151350Z 23017KT 9999 BKN030 23/16 Q1011 BLU NOSIG
EGCN - Doncaster Sheffield, United Kingdom
Distance from station: ESE 30mi, 45km
Updated: 15/08/2018 14:50
Partly cloudy
Partly cloudy
 Wind from SW
Wind: SW 22 mph , 35 km/h
Temperature: 26°C
Dew Point: 16°C
Humidity: 54%
Barometer: 1013 hPa
Clouds: Partly cloudy
Visibility: 6 miles , 10 km
Cloud details: Partly cloudy 1128 m
2018/08/15 13:50 EGCN 151350Z 23019KT 9999 SCT037 26/16 Q1013
 
EGXD - Dishforth RAF, United Kingdom
Distance from station: NNE 31mi, 49km
Updated: 06/06/2016 10:50
NOT Current
Clear
Clear
 Wind from SSE
Wind: SSE 5 mph , 7 km/h
Temperature: 18°C
Dew Point: 11°C
Humidity: 64%
Barometer: 1023 hPa
Clouds: Clear
Visibility: 6 miles , 10 km
2016/06/06 09:50 EGXD 060950Z AUTO 16004KT 9999 // NCD 18/11 Q1023
EGXZ - Topcliffe RAF, United Kingdom
Distance from station: NNE 36mi, 57km
Updated: 15/08/2018 14:50
Mostly cloudy
Mostly cloudy
 Wind from SW
Wind: SW 17 mph , 28 km/h, Gust: 29 mph , 46 km/h
Temperature: 23°C
Dew Point: 17°C
Humidity: 69%
Barometer: 1011 hPa
Clouds: Mostly cloudy
Visibility: 6 miles , 10 km
Cloud details: Mostly cloudy 762 m
2018/08/15 13:50 EGXZ 151350Z 23015G25KT 9999 BKN025 23/17 Q1011 BLU
 
EGCC - Manchester Intl, United Kingdom
Distance from station: SW 36mi, 58km
Updated: 15/08/2018 14:50
Mostly cloudy
Mostly cloudy
 Wind from SW
Wind: SW 15 mph , 24 km/h
Temperature: 23°C
Dew Point: 16°C
Humidity: 65%
Barometer: 1013 hPa
Clouds: Mostly cloudy
Visibility: 6 miles , 10 km
Cloud details: Mostly cloudy 792 m
Mostly cloudy 1006 m
2018/08/15 13:50 EGCC 151350Z AUTO 22013KT 180V240 9999 BKN026 BKN033 23/16 Q1013 NOSIG
EGXE - Leeming RAF, United Kingdom
Distance from station: N 40mi, 65km
Updated: 15/08/2018 14:50
Mostly cloudy
Mostly cloudy
 Wind from SW
Wind: SW 24 mph , 39 km/h
Temperature: 22°C
Dew Point: 16°C
Humidity: 69%
Barometer: 1011 hPa
Clouds: Mostly cloudy
Visibility: 6 miles , 10 km
Cloud details: Mostly cloudy 640 m
Mostly cloudy 6096 m
2018/08/15 13:50 EGXE 151350Z 23021KT 9999 BKN021 BKN200 22/16 Q1011 WHT TEMPO FEW020 BLU